createdAt,value
2019-03-17T00:01:57.917Z,9.90
2019-03-17T00:04:31.472Z,9.90
2019-03-17T00:06:52.616Z,9.80
2019-03-17T00:09:18.887Z,9.80
2019-03-17T00:11:45.250Z,9.80
2019-03-17T00:14:11.526Z,9.70
2019-03-17T00:16:37.823Z,9.70
2019-03-17T00:19:04.483Z,9.60
2019-03-17T00:21:30.939Z,9.60
2019-03-17T00:23:57.217Z,9.60
2019-03-17T00:26:23.461Z,9.50
2019-03-17T00:28:49.852Z,9.50
2019-03-17T00:31:23.811Z,9.40
2019-03-17T00:33:44.365Z,9.40
2019-03-17T00:36:11.682Z,9.30
2019-03-17T00:38:37.947Z,9.20
2019-03-17T00:41:04.192Z,9.10
2019-03-17T00:43:30.450Z,9.00
2019-03-17T00:45:56.752Z,8.90
2019-03-17T00:48:22.997Z,8.80
2019-03-17T00:50:49.268Z,8.70
2019-03-17T00:53:15.514Z,8.60
2019-03-17T00:55:41.809Z,8.50
2019-03-17T00:58:08.053Z,8.40
2019-03-17T01:00:34.321Z,8.40
2019-03-17T01:03:00.723Z,8.30
2019-03-17T01:05:26.961Z,8.20
2019-03-17T01:07:53.315Z,8.10
2019-03-17T01:10:19.579Z,8.00
2019-03-17T01:12:45.830Z,7.90
2019-03-17T01:15:12.208Z,7.80
2019-03-17T01:17:38.454Z,7.70
2019-03-17T01:20:08.145Z,7.60
2019-03-17T01:22:34.409Z,7.50
2019-03-17T01:25:00.750Z,7.40
2019-03-17T01:27:27.004Z,7.30
2019-03-17T01:29:53.288Z,7.30
2019-03-17T01:32:19.539Z,7.20
2019-03-17T01:34:45.823Z,7.10
2019-03-17T01:37:12.122Z,7.00
2019-03-17T01:39:38.479Z,7.00
2019-03-17T01:42:04.755Z,6.90
2019-03-17T01:44:31.010Z,6.80
2019-03-17T01:46:57.265Z,6.80
2019-03-17T01:49:23.546Z,6.70
2019-03-17T01:51:49.810Z,6.70
2019-03-17T01:54:16.181Z,6.60
2019-03-17T01:56:42.453Z,6.60
2019-03-17T01:59:08.703Z,6.50
2019-03-17T02:01:34.975Z,6.50
2019-03-17T02:04:01.230Z,6.40
2019-03-17T02:06:27.489Z,6.40
2019-03-17T02:08:53.757Z,6.40
2019-03-17T02:11:20.035Z,6.40
2019-03-17T02:13:46.289Z,6.30
2019-03-17T02:16:12.612Z,6.30
2019-03-17T02:18:38.863Z,6.30
2019-03-17T02:21:05.125Z,6.30
2019-03-17T02:23:31.373Z,6.30
2019-03-17T02:25:57.681Z,6.20
2019-03-17T02:28:24.063Z,6.20
2019-03-17T02:30:50.340Z,6.20
2019-03-17T02:33:16.655Z,6.10
2019-03-17T02:35:42.906Z,6.10
2019-03-17T02:38:09.259Z,6.00
2019-03-17T02:40:35.551Z,5.90
2019-03-17T02:43:01.800Z,5.90
2019-03-17T02:45:28.234Z,5.80
2019-03-17T02:47:54.463Z,5.70
2019-03-17T02:50:20.720Z,5.70
2019-03-17T02:52:46.960Z,5.60
2019-03-17T02:55:13.230Z,5.60
2019-03-17T02:57:39.553Z,5.60
2019-03-17T03:00:08.886Z,5.50
2019-03-17T03:02:35.302Z,5.40
2019-03-17T03:05:01.852Z,5.40
2019-03-17T03:07:28.130Z,5.30
2019-03-17T03:09:54.414Z,5.30
2019-03-17T03:12:20.663Z,5.20
2019-03-17T03:14:46.921Z,5.20
2019-03-17T03:17:13.199Z,5.10
2019-03-17T03:19:39.560Z,5.10
2019-03-17T03:22:05.817Z,5.10
2019-03-17T03:24:32.081Z,5.00
2019-03-17T03:26:58.332Z,5.00
2019-03-17T03:29:27.301Z,5.00
2019-03-17T03:31:52.758Z,5.00
2019-03-17T03:34:19.015Z,5.00
2019-03-17T03:36:45.514Z,5.00
2019-03-17T03:39:11.826Z,5.10
2019-03-17T03:41:38.075Z,5.10
2019-03-17T03:44:04.465Z,5.10
2019-03-17T03:46:30.944Z,5.10
2019-03-17T03:48:57.204Z,5.10
2019-03-17T03:51:23.592Z,5.10
2019-03-17T03:53:49.960Z,5.10
2019-03-17T03:56:16.227Z,5.10
2019-03-17T03:58:42.498Z,5.10
2019-03-17T04:01:08.764Z,5.10
2019-03-17T04:03:35.008Z,5.10
2019-03-17T04:06:01.388Z,5.00
2019-03-17T04:08:27.633Z,5.00
2019-03-17T04:10:54.048Z,4.90
2019-03-17T04:13:20.313Z,4.90
2019-03-17T04:15:46.798Z,4.80
2019-03-17T04:18:13.182Z,4.70
2019-03-17T04:20:39.425Z,4.70
2019-03-17T04:23:05.747Z,4.60
2019-03-17T04:25:32.010Z,4.60
2019-03-17T04:27:58.271Z,4.50
2019-03-17T04:30:24.642Z,4.40
2019-03-17T04:32:50.917Z,4.40
2019-03-17T04:35:17.187Z,4.40
2019-03-17T04:37:43.453Z,4.30
2019-03-17T04:40:10.012Z,4.30
2019-03-17T04:42:36.266Z,4.20
2019-03-17T04:45:04.380Z,4.10
2019-03-17T04:47:30.635Z,4.10
2019-03-17T04:49:56.909Z,4.10
2019-03-17T04:52:23.499Z,4.00
2019-03-17T04:55:09.743Z,4.00
2019-03-17T04:57:36.053Z,3.90
2019-03-17T05:00:07.955Z,3.90
2019-03-17T05:02:34.219Z,3.90
2019-03-17T05:05:00.483Z,3.80
2019-03-17T05:07:26.777Z,3.80
2019-03-17T05:09:53.033Z,3.70
2019-03-17T05:12:19.311Z,3.70
2019-03-17T05:14:45.573Z,3.70
2019-03-17T05:17:11.945Z,3.70
2019-03-17T05:19:38.224Z,3.70
2019-03-17T05:22:04.485Z,3.70
2019-03-17T05:24:30.739Z,3.70
2019-03-17T05:26:57.014Z,3.70
2019-03-17T05:29:23.287Z,3.70
2019-03-17T05:31:49.543Z,3.70
2019-03-17T05:34:15.850Z,3.70
2019-03-17T05:36:42.131Z,3.60
2019-03-17T05:39:08.396Z,3.60
2019-03-17T05:41:34.645Z,3.70
2019-03-17T05:44:01.038Z,3.70
2019-03-17T05:46:27.314Z,3.70
2019-03-17T05:48:53.628Z,3.70
2019-03-17T05:51:19.963Z,3.70
2019-03-17T05:53:46.234Z,3.80
2019-03-17T05:56:12.491Z,3.80
2019-03-17T05:58:38.773Z,3.80
2019-03-17T06:01:05.037Z,3.90
2019-03-17T06:03:31.288Z,4.00
2019-03-17T06:05:57.541Z,4.00
2019-03-17T06:08:24.020Z,4.10
2019-03-17T06:10:50.265Z,4.20
2019-03-17T06:13:16.557Z,4.30
2019-03-17T06:15:42.824Z,4.50
2019-03-17T06:18:10.669Z,4.60
2019-03-17T06:20:36.924Z,4.90
2019-03-17T06:23:03.175Z,5.20
2019-03-17T06:25:29.545Z,5.50
2019-03-17T06:27:55.800Z,5.90
2019-03-17T06:30:22.067Z,6.40
2019-03-17T06:32:48.332Z,6.90
2019-03-17T06:35:14.679Z,7.40
2019-03-17T06:37:40.942Z,7.90
2019-03-17T06:40:12.610Z,8.30
2019-03-17T06:42:38.893Z,8.80
2019-03-17T06:45:08.257Z,9.30
2019-03-17T06:47:34.529Z,9.70
2019-03-17T06:50:00.782Z,10.10
2019-03-17T06:52:27.054Z,10.40
2019-03-17T06:54:53.308Z,10.60
2019-03-17T06:57:19.564Z,10.90
2019-03-17T06:59:46.263Z,11.10
2019-03-17T07:02:12.528Z,11.30
2019-03-17T07:04:38.795Z,11.50
2019-03-17T07:07:05.044Z,11.60
2019-03-17T07:09:31.293Z,11.70
2019-03-17T07:11:57.619Z,11.90
2019-03-17T07:14:23.876Z,12.00
2019-03-17T07:16:50.266Z,12.10
2019-03-17T07:19:16.535Z,12.20
2019-03-17T07:21:42.794Z,12.30
2019-03-17T07:24:09.085Z,12.40
2019-03-17T07:26:35.425Z,12.50
2019-03-17T07:29:01.715Z,12.60
2019-03-17T07:31:27.971Z,12.80
2019-03-17T07:33:54.347Z,12.90
2019-03-17T07:36:20.943Z,13.00
2019-03-17T07:38:47.242Z,13.10
2019-03-17T07:41:13.526Z,13.30
2019-03-17T07:43:39.783Z,13.50
2019-03-17T07:46:06.083Z,13.70
2019-03-17T07:48:32.327Z,13.90
2019-03-17T07:50:58.621Z,14.10
2019-03-17T07:53:24.885Z,14.40
2019-03-17T07:55:51.147Z,14.60
2019-03-17T07:58:17.426Z,14.90
2019-03-17T08:00:43.918Z,15.10
2019-03-17T08:03:10.186Z,15.40
2019-03-17T08:05:36.463Z,15.70
2019-03-17T08:08:09.217Z,16.00
2019-03-17T08:10:32.397Z,16.30
2019-03-17T08:12:58.655Z,16.50
2019-03-17T08:15:24.919Z,16.70
2019-03-17T08:17:51.441Z,16.90
2019-03-17T08:20:17.838Z,17.10
2019-03-17T08:22:44.109Z,17.40
2019-03-17T08:25:11.074Z,17.60
2019-03-17T08:27:37.316Z,17.80
2019-03-17T08:30:13.425Z,18.00
2019-03-17T08:32:41.256Z,18.20
2019-03-17T08:35:09.145Z,18.40
2019-03-17T08:37:37.337Z,18.60
2019-03-17T08:40:09.456Z,18.80
2019-03-17T08:42:36.150Z,19.10
2019-03-17T08:45:03.448Z,19.30
2019-03-17T08:47:30.121Z,19.50
2019-03-17T08:49:56.379Z,19.70
2019-03-17T08:52:22.651Z,19.90
2019-03-17T08:54:48.915Z,20.00
2019-03-17T08:57:15.410Z,20.10
2019-03-17T08:59:41.762Z,20.20
2019-03-17T09:02:08.046Z,20.30
2019-03-17T09:04:34.305Z,20.40
2019-03-17T09:07:00.567Z,20.60
2019-03-17T09:09:27.010Z,20.70
2019-03-17T09:11:53.606Z,20.90
2019-03-17T09:14:19.867Z,20.90
2019-03-17T09:16:46.436Z,21.00
2019-03-17T09:19:12.699Z,21.20
2019-03-17T09:21:38.996Z,21.30
2019-03-17T09:24:16.600Z,21.40
2019-03-17T09:26:33.394Z,21.50
2019-03-17T09:28:59.654Z,21.50
2019-03-17T09:31:25.924Z,21.50
2019-03-17T09:33:52.246Z,21.40
2019-03-17T09:36:18.496Z,21.50
2019-03-17T09:38:47.492Z,21.60
2019-03-17T09:41:12.947Z,21.70
2019-03-17T09:43:39.194Z,21.80
2019-03-17T09:46:05.556Z,22.00
2019-03-17T09:48:31.839Z,22.10
2019-03-17T09:50:58.326Z,22.10
2019-03-17T09:53:24.668Z,22.20
2019-03-17T09:55:50.919Z,22.40
2019-03-17T09:58:17.173Z,22.60
2019-03-17T10:00:43.442Z,22.70
2019-03-17T10:03:09.692Z,22.80
2019-03-17T10:05:35.959Z,23.00
2019-03-17T10:08:02.491Z,23.10
2019-03-17T10:10:28.744Z,23.20
2019-03-17T10:12:55.245Z,23.30
2019-03-17T10:15:21.456Z,23.40
2019-03-17T10:17:47.726Z,23.40
2019-03-17T10:20:18.396Z,23.50
2019-03-17T10:22:44.792Z,23.50
2019-03-17T10:25:11.775Z,23.60
2019-03-17T10:27:38.130Z,23.60
2019-03-17T10:30:18.246Z,23.50
2019-03-17T10:32:46.505Z,23.50
2019-03-17T10:35:12.921Z,23.50
2019-03-17T10:37:39.320Z,23.40
2019-03-17T10:40:17.290Z,23.40
2019-03-17T10:42:44.037Z,23.40
2019-03-17T10:45:11.497Z,23.40
2019-03-17T10:47:37.846Z,23.20
2019-03-17T10:50:17.036Z,23.10
2019-03-17T10:52:43.303Z,22.90
2019-03-17T10:55:10.571Z,22.80
2019-03-17T10:57:36.983Z,22.70
2019-03-17T11:00:20.891Z,22.50
2019-03-17T11:02:47.134Z,22.30
2019-03-17T11:05:13.698Z,22.20
2019-03-17T11:07:41.525Z,22.10
2019-03-17T11:10:12.815Z,22.00
2019-03-17T11:12:41.959Z,21.90
2019-03-17T11:15:22.149Z,21.80
2019-03-17T11:17:48.393Z,21.70
2019-03-17T11:20:14.878Z,21.50
2019-03-17T11:22:41.340Z,21.40
2019-03-17T11:25:11.534Z,21.40
2019-03-17T11:27:37.954Z,21.30
2019-03-17T11:30:14.778Z,21.10
2019-03-17T11:32:41.165Z,21.00
2019-03-17T11:35:07.918Z,21.00
2019-03-17T11:37:34.377Z,20.90
2019-03-17T11:40:00.670Z,20.90
2019-03-17T11:42:26.934Z,20.80
2019-03-17T11:44:53.247Z,20.70
2019-03-17T11:47:19.488Z,20.60
2019-03-17T11:49:46.351Z,20.70
2019-03-17T11:52:12.702Z,20.60
2019-03-17T11:54:39.392Z,20.60
2019-03-17T11:57:07.198Z,20.60
2019-03-17T11:59:33.577Z,20.60
2019-03-17T12:01:59.861Z,20.50
2019-03-17T12:04:26.128Z,20.50
2019-03-17T12:06:52.428Z,20.50
2019-03-17T12:09:28.615Z,20.50
2019-03-17T12:11:46.861Z,20.40
2019-03-17T12:14:13.162Z,20.40
2019-03-17T12:16:39.492Z,20.40
2019-03-17T12:19:05.755Z,20.30
2019-03-17T12:21:32.583Z,20.30
2019-03-17T12:23:58.850Z,20.20
2019-03-17T12:26:25.153Z,20.20
2019-03-17T12:28:51.394Z,20.10
2019-03-17T12:31:17.637Z,20.10
2019-03-17T12:33:43.901Z,20.00
2019-03-17T12:36:10.159Z,20.00
2019-03-17T12:38:36.502Z,19.90
2019-03-17T12:41:03.119Z,19.80
2019-03-17T12:43:29.472Z,19.80
2019-03-17T12:45:55.744Z,19.80
2019-03-17T12:48:23.400Z,19.70
2019-03-17T12:50:49.651Z,19.70
2019-03-17T12:53:16.990Z,19.70
2019-03-17T12:55:43.460Z,19.70
2019-03-17T12:58:10.098Z,19.70
2019-03-17T13:00:36.367Z,19.60
2019-03-17T13:03:03.095Z,19.60
2019-03-17T13:05:30.649Z,19.60
2019-03-17T13:07:56.911Z,19.60
2019-03-17T13:10:23.327Z,19.60
2019-03-17T13:12:49.833Z,19.50
2019-03-17T13:15:18.205Z,19.50
2019-03-17T13:17:44.913Z,19.50
2019-03-17T13:20:16.349Z,19.40
2019-03-17T13:22:43.896Z,19.30
2019-03-17T13:25:11.171Z,19.30
2019-03-17T13:27:37.584Z,19.30
2019-03-17T13:30:18.119Z,19.20
2019-03-17T13:32:44.493Z,19.20
2019-03-17T13:35:11.286Z,19.20
2019-03-17T13:37:38.016Z,19.10
2019-03-17T13:40:27.648Z,19.10
2019-03-17T13:42:42.878Z,19.10
2019-03-17T13:45:12.787Z,19.00
2019-03-17T13:47:39.355Z,19.10
2019-03-17T13:50:21.200Z,19.00
2019-03-17T13:52:47.475Z,19.00
2019-03-17T13:55:13.823Z,19.00
2019-03-17T13:57:49.870Z,19.00
2019-03-17T14:00:16.111Z,18.90
2019-03-17T14:02:42.412Z,18.90
2019-03-17T14:05:08.974Z,18.80
2019-03-17T14:07:35.405Z,18.80
2019-03-17T14:10:13.545Z,18.80
2019-03-17T14:12:32.744Z,18.80
2019-03-17T14:15:01.445Z,18.80
2019-03-17T14:17:27.822Z,18.70
2019-03-17T14:19:54.077Z,18.60
2019-03-17T14:22:20.547Z,18.60
2019-03-17T14:24:46.842Z,18.50
2019-03-17T14:27:14.834Z,18.50
2019-03-17T14:29:41.097Z,18.40
2019-03-17T14:32:07.802Z,18.40
2019-03-17T14:34:34.249Z,18.30
2019-03-17T14:37:00.640Z,18.30
2019-03-17T14:39:27.107Z,18.20
2019-03-17T14:41:56.818Z,18.20
2019-03-17T14:44:23.211Z,18.10
2019-03-17T14:46:49.575Z,18.10
2019-03-17T14:49:16.210Z,18.00
2019-03-17T14:51:42.476Z,17.90
2019-03-17T14:54:09.072Z,17.90
2019-03-17T14:56:35.750Z,17.80
2019-03-17T14:59:02.111Z,17.70
2019-03-17T15:01:28.384Z,17.70
2019-03-17T15:03:54.629Z,17.60
2019-03-17T15:06:20.931Z,17.50
2019-03-17T15:08:47.199Z,17.50
2019-03-17T15:11:13.486Z,17.50
2019-03-17T15:13:39.773Z,17.40
2019-03-17T15:16:06.053Z,17.40
2019-03-17T15:18:32.309Z,17.30
2019-03-17T15:20:58.567Z,17.30
2019-03-17T15:23:24.959Z,17.20
2019-03-17T15:25:51.216Z,17.20
2019-03-17T15:28:17.479Z,17.10
2019-03-17T15:30:57.025Z,17.00
2019-03-17T15:33:11.954Z,17.00
2019-03-17T15:35:38.245Z,16.90
2019-03-17T15:38:04.492Z,16.80
2019-03-17T15:40:30.741Z,16.80
2019-03-17T15:42:56.998Z,16.70
2019-03-17T15:45:24.054Z,16.70
2019-03-17T15:47:50.516Z,16.60
2019-03-17T15:50:18.795Z,16.60
2019-03-17T15:52:45.184Z,16.60
2019-03-17T15:55:15.059Z,16.60
2019-03-17T15:57:41.720Z,16.60
2019-03-17T16:00:24.718Z,16.60
2019-03-17T16:02:44.144Z,16.50
2019-03-17T16:05:10.756Z,16.50
2019-03-17T16:07:42.223Z,16.50
2019-03-17T16:10:15.822Z,16.50
2019-03-17T16:12:42.318Z,16.50
2019-03-17T16:15:11.996Z,16.40
2019-03-17T16:17:38.299Z,16.40
2019-03-17T16:20:18.213Z,16.30
2019-03-17T16:22:44.634Z,16.30
2019-03-17T16:25:13.767Z,16.20
2019-03-17T16:27:40.055Z,16.20
2019-03-17T16:30:17.824Z,16.10
2019-03-17T16:32:44.204Z,16.10
2019-03-17T16:35:10.873Z,16.00
2019-03-17T16:37:37.137Z,16.00
2019-03-17T16:40:09.013Z,16.00
2019-03-17T16:42:35.282Z,15.90
2019-03-17T16:45:01.965Z,15.90
2019-03-17T16:47:28.234Z,15.80
2019-03-17T16:49:54.522Z,15.80
2019-03-17T16:52:20.777Z,15.70
2019-03-17T16:54:47.128Z,15.70
2019-03-17T16:57:13.427Z,15.60
2019-03-17T16:59:40.910Z,15.40
2019-03-17T17:02:07.164Z,15.20
2019-03-17T17:04:33.734Z,15.10
2019-03-17T17:07:00.121Z,14.90
2019-03-17T17:09:26.410Z,14.70
2019-03-17T17:11:57.071Z,14.50
2019-03-17T17:14:21.026Z,14.20
2019-03-17T17:16:47.305Z,14.00
2019-03-17T17:19:13.558Z,13.70
2019-03-17T17:21:40.049Z,13.40
2019-03-17T17:24:06.446Z,13.10
2019-03-17T17:26:37.568Z,12.70
2019-03-17T17:29:09.896Z,12.40
2019-03-17T17:31:36.400Z,12.10
2019-03-17T17:34:02.830Z,11.80
2019-03-17T17:36:29.121Z,11.50
2019-03-17T17:38:55.661Z,11.20
2019-03-17T17:41:21.925Z,10.90
2019-03-17T17:43:48.198Z,10.70
2019-03-17T17:46:14.502Z,10.50
2019-03-17T17:48:40.820Z,10.20
2019-03-17T17:51:07.186Z,10.00
2019-03-17T17:53:33.467Z,9.80
2019-03-17T17:55:59.961Z,9.60
2019-03-17T17:58:26.662Z,9.50
2019-03-17T18:00:53.158Z,9.40
2019-03-17T18:03:19.771Z,9.20
2019-03-17T18:05:46.765Z,9.10
2019-03-17T18:08:13.767Z,9.00
2019-03-17T18:10:40.783Z,8.90
2019-03-17T18:13:08.005Z,8.80
2019-03-17T18:15:35.496Z,8.60
2019-03-17T18:18:04.509Z,8.50
2019-03-17T18:20:32.290Z,8.40
2019-03-17T18:22:59.625Z,8.30
2019-03-17T18:25:27.611Z,8.10
2019-03-17T18:27:55.489Z,8.00
2019-03-17T18:30:24.499Z,7.90
2019-03-17T18:32:51.780Z,7.90
2019-03-17T18:35:20.087Z,7.70
2019-03-17T18:37:50.804Z,7.50
2019-03-17T18:40:20.294Z,7.40
2019-03-17T18:42:48.277Z,7.30
2019-03-17T18:45:27.994Z,7.20
2019-03-17T18:47:57.620Z,7.20
2019-03-17T18:50:25.734Z,7.10
2019-03-17T18:52:57.106Z,7.10
2019-03-17T18:55:25.323Z,7.00
2019-03-17T18:57:53.202Z,7.00
2019-03-17T19:00:25.130Z,6.90
2019-03-17T19:02:53.079Z,6.80
2019-03-17T19:05:21.162Z,6.80
2019-03-17T19:07:49.199Z,6.70
2019-03-17T19:10:20.093Z,6.70
2019-03-17T19:12:48.308Z,6.70
2019-03-17T19:15:20.675Z,6.70
2019-03-17T19:17:48.905Z,6.70
2019-03-17T19:20:20.859Z,6.80
2019-03-17T19:22:48.873Z,7.00
2019-03-17T19:25:20.062Z,7.10
2019-03-17T19:27:48.163Z,7.10
2019-03-17T19:30:18.876Z,7.10
2019-03-17T19:32:47.247Z,7.00
2019-03-17T19:35:15.753Z,7.00
2019-03-17T19:37:43.804Z,7.00
2019-03-17T19:40:16.898Z,7.00
2019-03-17T19:42:57.376Z,7.00
2019-03-17T19:45:15.125Z,7.00
2019-03-17T19:47:44.329Z,6.90
2019-03-17T19:50:18.474Z,6.80
2019-03-17T19:52:46.417Z,6.90
2019-03-17T19:55:14.323Z,6.90
2019-03-17T19:57:42.324Z,6.80
2019-03-17T20:00:20.235Z,6.80
2019-03-17T20:02:48.987Z,6.70
2019-03-17T20:05:16.908Z,6.70
2019-03-17T20:07:44.921Z,6.60
2019-03-17T20:10:28.587Z,6.60
2019-03-17T20:12:56.669Z,6.60
2019-03-17T20:15:24.780Z,6.50
2019-03-17T20:17:52.899Z,6.50
2019-03-17T20:20:23.095Z,6.50
2019-03-17T20:22:51.024Z,6.50
2019-03-17T20:25:19.051Z,6.40
2019-03-17T20:27:47.458Z,6.40
2019-03-17T20:30:19.211Z,6.40
2019-03-17T20:32:47.210Z,6.50
2019-03-17T20:35:15.991Z,6.30
2019-03-17T20:37:43.902Z,6.40
2019-03-17T20:40:15.835Z,6.40
2019-03-17T20:42:43.924Z,6.40
2019-03-17T20:45:13.981Z,6.40
2019-03-17T20:47:42.048Z,6.40
2019-03-17T20:50:14.049Z,6.40
2019-03-17T20:52:42.684Z,6.40
2019-03-17T20:55:13.909Z,6.40
2019-03-17T20:57:44.319Z,6.50
2019-03-17T21:00:19.069Z,6.50
2019-03-17T21:02:48.699Z,6.40
2019-03-17T21:05:19.988Z,6.40
2019-03-17T21:07:48.099Z,6.40
2019-03-17T21:10:16.803Z,6.40
2019-03-17T21:12:44.896Z,6.40
2019-03-17T21:15:20.347Z,6.30
2019-03-17T21:17:48.867Z,6.30
2019-03-17T21:20:22.409Z,6.30
2019-03-17T21:22:52.326Z,6.30
2019-03-17T21:25:20.484Z,6.20
2019-03-17T21:27:48.590Z,6.10
2019-03-17T21:30:28.302Z,6.10
2019-03-17T21:32:57.423Z,6.10
2019-03-17T21:35:26.485Z,6.10
2019-03-17T21:37:54.641Z,6.10
2019-03-17T21:40:21.974Z,6.10
2019-03-17T21:42:48.637Z,6.10
2019-03-17T21:45:15.084Z,6.00
2019-03-17T21:47:41.826Z,6.00
2019-03-17T21:50:15.699Z,6.00
2019-03-17T21:52:42.056Z,6.00
2019-03-17T21:55:09.583Z,6.00
2019-03-17T21:57:35.970Z,6.00
2019-03-17T22:00:16.356Z,6.00
2019-03-17T22:02:42.882Z,6.00
2019-03-17T22:05:10.866Z,6.00
2019-03-17T22:07:49.001Z,6.00
2019-03-17T22:10:20.203Z,5.90
2019-03-17T22:12:46.750Z,5.90
2019-03-17T22:15:14.669Z,5.90
2019-03-17T22:17:41.776Z,5.90
2019-03-17T22:20:11.675Z,5.90
2019-03-17T22:22:38.273Z,5.90
2019-03-17T22:25:10.018Z,5.90
2019-03-17T22:27:36.399Z,5.90
2019-03-17T22:30:14.066Z,5.80
2019-03-17T22:32:40.624Z,5.80
2019-03-17T22:35:08.690Z,5.80
2019-03-17T22:37:35.464Z,5.80
2019-03-17T22:40:08.209Z,5.80
2019-03-17T22:42:34.993Z,5.80
2019-03-17T22:45:02.137Z,5.80
2019-03-17T22:47:28.499Z,5.70
2019-03-17T22:49:54.982Z,5.80
2019-03-17T22:52:21.352Z,5.70
2019-03-17T22:54:47.765Z,5.70
2019-03-17T22:57:14.259Z,5.70
2019-03-17T22:59:40.583Z,5.70
2019-03-17T23:02:06.926Z,5.60
2019-03-17T23:04:33.217Z,5.60
2019-03-17T23:06:59.521Z,5.60
2019-03-17T23:09:25.767Z,5.60
2019-03-17T23:11:52.052Z,5.50
2019-03-17T23:14:18.324Z,5.50
2019-03-17T23:16:44.598Z,5.60
2019-03-17T23:19:10.836Z,5.60
2019-03-17T23:21:37.327Z,5.50
2019-03-17T23:24:03.711Z,5.50
2019-03-17T23:26:30.129Z,5.50
2019-03-17T23:28:56.393Z,5.50
2019-03-17T23:31:22.680Z,5.50
2019-03-17T23:33:48.956Z,5.40
2019-03-17T23:36:16.230Z,5.40
2019-03-17T23:38:42.869Z,5.40
2019-03-17T23:41:09.125Z,5.30
2019-03-17T23:43:35.410Z,5.30
2019-03-17T23:46:01.916Z,5.20
2019-03-17T23:48:28.197Z,5.20
2019-03-17T23:50:54.449Z,5.20
2019-03-17T23:53:20.723Z,5.20
2019-03-17T23:55:49.122Z,5.10
2019-03-17T23:58:15.384Z,5.10
